createdAt,value
2019-06-02T00:00:09.630Z,1015.89
2019-06-02T00:01:10.062Z,1015.91
2019-06-02T00:02:10.502Z,1015.92
2019-06-02T00:03:10.938Z,1015.92
2019-06-02T00:04:11.382Z,1015.91
2019-06-02T00:05:11.815Z,1015.90
2019-06-02T00:06:12.262Z,1015.89
2019-06-02T00:07:12.694Z,1015.91
2019-06-02T00:08:13.133Z,1015.94
2019-06-02T00:09:13.578Z,1015.90
2019-06-02T00:10:14.009Z,1015.91
2019-06-02T00:11:14.457Z,1015.93
2019-06-02T00:12:14.902Z,1015.93
2019-06-02T00:13:15.333Z,1015.94
2019-06-02T00:14:28.244Z,1015.96
2019-06-02T00:15:16.213Z,1016.00
2019-06-02T00:16:16.646Z,1016.00
2019-06-02T00:17:17.078Z,1016.00
2019-06-02T00:18:17.518Z,1016.01
2019-06-02T00:19:17.963Z,1016.03
2019-06-02T00:20:18.408Z,1016.01
2019-06-02T00:21:18.850Z,1016.01
2019-06-02T00:22:19.269Z,1016.05
2019-06-02T00:23:19.718Z,1016.08
2019-06-02T00:24:20.154Z,1016.06
2019-06-02T00:25:20.600Z,1016.07
2019-06-02T00:26:21.029Z,1016.06
2019-06-02T00:27:21.486Z,1016.01
2019-06-02T00:28:21.919Z,1016.00
2019-06-02T00:29:22.344Z,1016.02
2019-06-02T00:30:22.792Z,1016.04
2019-06-02T00:31:23.217Z,1016.04
2019-06-02T00:32:23.655Z,1016.03
2019-06-02T00:33:24.099Z,1016.07
2019-06-02T00:34:25.783Z,1016.06
2019-06-02T00:35:26.004Z,1016.09
2019-06-02T00:36:26.075Z,1016.07
2019-06-02T00:37:25.989Z,1016.08
2019-06-02T00:38:26.391Z,1016.09
2019-06-02T00:39:27.294Z,1016.08
2019-06-02T00:40:28.370Z,1016.10
2019-06-02T00:41:28.546Z,1016.13
2019-06-02T00:42:28.717Z,1016.15
2019-06-02T00:43:28.622Z,1016.18
2019-06-02T00:44:48.269Z,1016.17
2019-06-02T00:45:29.349Z,1016.16
2019-06-02T00:46:30.995Z,1016.12
2019-06-02T00:47:31.243Z,1016.11
2019-06-02T00:48:31.327Z,1016.12
2019-06-02T00:49:31.276Z,1016.12
2019-06-02T00:50:31.550Z,1016.14
2019-06-02T00:51:31.994Z,1016.16
2019-06-02T00:52:33.660Z,1016.18
2019-06-02T00:53:33.804Z,1016.14
2019-06-02T00:54:33.765Z,1016.17
2019-06-02T00:55:33.854Z,1016.17
2019-06-02T00:56:34.177Z,1016.14
2019-06-02T00:57:35.850Z,1016.14
2019-06-02T00:58:35.830Z,1016.15
2019-06-02T00:59:35.938Z,1016.17
2019-06-02T01:00:36.310Z,1016.16
2019-06-02T01:01:36.367Z,1016.18
2019-06-02T01:02:38.248Z,1016.18
2019-06-02T01:03:38.304Z,1016.16
2019-06-02T01:04:38.478Z,1016.15
2019-06-02T01:05:38.574Z,1016.18
2019-06-02T01:06:38.709Z,1016.17
2019-06-02T01:07:38.990Z,1016.15
2019-06-02T01:08:39.478Z,1016.14
2019-06-02T01:09:39.867Z,1016.12
2019-06-02T01:10:40.311Z,1016.14
2019-06-02T01:11:40.738Z,1016.12
2019-06-02T01:12:41.179Z,1016.13
2019-06-02T01:13:41.613Z,1016.14
2019-06-02T01:14:42.050Z,1016.14
2019-06-02T01:15:42.488Z,1016.16
2019-06-02T01:16:42.950Z,1016.17
2019-06-02T01:17:43.372Z,1016.13
2019-06-02T01:18:43.802Z,1016.13
2019-06-02T01:19:44.237Z,1016.11
2019-06-02T01:20:44.680Z,1016.10
2019-06-02T01:21:45.116Z,1016.11
2019-06-02T01:22:45.554Z,1016.11
2019-06-02T01:23:45.991Z,1016.11
2019-06-02T01:24:46.455Z,1016.08
2019-06-02T01:25:46.875Z,1016.12
2019-06-02T01:26:47.307Z,1016.10
2019-06-02T01:27:47.745Z,1016.10
2019-06-02T01:28:48.175Z,1016.10
2019-06-02T01:29:48.622Z,1016.09
2019-06-02T01:30:49.055Z,1016.08
2019-06-02T01:31:49.492Z,1016.06
2019-06-02T01:32:49.937Z,1016.06
2019-06-02T01:33:50.364Z,1016.04
2019-06-02T01:34:50.807Z,1016.06
2019-06-02T01:35:51.262Z,1016.04
2019-06-02T01:36:51.678Z,1016.02
2019-06-02T01:37:52.116Z,1016.07
2019-06-02T01:38:52.555Z,1016.08
2019-06-02T01:39:52.994Z,1016.05
2019-06-02T01:40:53.420Z,1016.07
2019-06-02T01:41:53.869Z,1016.09
2019-06-02T01:42:54.307Z,1016.09
2019-06-02T01:43:54.736Z,1016.11
2019-06-02T01:44:55.177Z,1016.12
2019-06-02T01:45:55.610Z,1016.19
2019-06-02T01:46:56.058Z,1016.15
2019-06-02T01:47:56.483Z,1016.17
2019-06-02T01:48:57.005Z,1016.15
2019-06-02T01:49:57.459Z,1016.16
2019-06-02T01:50:57.803Z,1016.16
2019-06-02T01:51:58.234Z,1016.14
2019-06-02T01:52:58.674Z,1016.15
2019-06-02T01:53:59.123Z,1016.14
2019-06-02T01:54:59.550Z,1016.13
2019-06-02T01:55:59.989Z,1016.11
2019-06-02T01:57:00.427Z,1016.11
2019-06-02T01:58:00.890Z,1016.14
2019-06-02T01:59:01.295Z,1016.09
2019-06-02T02:00:01.751Z,1016.10
2019-06-02T02:01:02.243Z,1016.14
2019-06-02T02:02:02.606Z,1016.15
2019-06-02T02:03:03.045Z,1016.13
2019-06-02T02:04:03.493Z,1016.14
2019-06-02T02:05:03.919Z,1016.15
2019-06-02T02:06:04.364Z,1016.19
2019-06-02T02:07:04.805Z,1016.17
2019-06-02T02:08:05.234Z,1016.20
2019-06-02T02:09:05.687Z,1016.18
2019-06-02T02:10:06.103Z,1016.23
2019-06-02T02:11:06.548Z,1016.23
2019-06-02T02:12:06.990Z,1016.24
2019-06-02T02:13:07.414Z,1016.24
2019-06-02T02:14:07.855Z,1016.21
2019-06-02T02:15:08.294Z,1016.21
2019-06-02T02:16:08.730Z,1016.20
2019-06-02T02:17:09.171Z,1016.20
2019-06-02T02:18:09.600Z,1016.22
2019-06-02T02:19:10.038Z,1016.20
2019-06-02T02:20:10.472Z,1016.19
2019-06-02T02:21:10.915Z,1016.17
2019-06-02T02:22:11.358Z,1016.12
2019-06-02T02:23:11.789Z,1016.13
2019-06-02T02:24:12.221Z,1016.17
2019-06-02T02:25:12.659Z,1016.17
2019-06-02T02:26:13.184Z,1016.16
2019-06-02T02:27:13.545Z,1016.11
2019-06-02T02:28:13.966Z,1016.11
2019-06-02T02:29:14.404Z,1016.12
2019-06-02T02:30:14.843Z,1016.11
2019-06-02T02:31:15.280Z,1016.07
2019-06-02T02:32:15.731Z,1016.11
2019-06-02T02:33:16.163Z,1016.08
2019-06-02T02:34:16.597Z,1016.06
2019-06-02T02:35:17.024Z,1016.06
2019-06-02T02:36:17.473Z,1016.07
2019-06-02T02:37:17.902Z,1016.10
2019-06-02T02:38:18.340Z,1016.07
2019-06-02T02:39:18.787Z,1016.10
2019-06-02T02:40:19.248Z,1016.08
2019-06-02T02:41:19.655Z,1016.09
2019-06-02T02:42:20.081Z,1016.11
2019-06-02T02:43:20.521Z,1016.08
2019-06-02T02:44:20.963Z,1016.07
2019-06-02T02:45:21.391Z,1016.06
2019-06-02T02:46:21.831Z,1016.06
2019-06-02T02:47:22.330Z,1016.06
2019-06-02T02:48:22.732Z,1016.08
2019-06-02T02:49:23.147Z,1016.04
2019-06-02T02:50:23.575Z,1016.08
2019-06-02T02:51:24.015Z,1016.08
2019-06-02T02:52:24.452Z,1016.09
2019-06-02T02:53:24.893Z,1016.07
2019-06-02T02:54:25.325Z,1016.10
2019-06-02T02:55:25.768Z,1016.10
2019-06-02T02:56:26.199Z,1016.11
2019-06-02T02:57:26.632Z,1016.10
2019-06-02T02:58:27.069Z,1016.07
2019-06-02T02:59:27.507Z,1016.08
2019-06-02T03:00:27.942Z,1016.10
2019-06-02T03:01:28.379Z,1016.09
2019-06-02T03:02:28.816Z,1016.09
2019-06-02T03:03:29.287Z,1016.08
2019-06-02T03:04:29.692Z,1016.07
2019-06-02T03:05:30.141Z,1016.08
2019-06-02T03:06:30.566Z,1016.14
2019-06-02T03:07:31.001Z,1016.05
2019-06-02T03:08:31.434Z,1016.08
2019-06-02T03:09:31.882Z,1016.05
2019-06-02T03:10:32.309Z,1016.08
2019-06-02T03:11:32.751Z,1016.06
2019-06-02T03:12:33.188Z,1016.06
2019-06-02T03:13:33.620Z,1016.03
2019-06-02T03:14:34.070Z,1016.04
2019-06-02T03:15:36.354Z,1016.03
2019-06-02T03:16:36.153Z,1016.01
2019-06-02T03:17:36.190Z,1016.01
2019-06-02T03:18:36.442Z,1016.03
2019-06-02T03:19:37.639Z,1016.02
2019-06-02T03:20:38.400Z,1016.03
2019-06-02T03:21:38.355Z,1016.02
2019-06-02T03:22:40.662Z,1016.03
2019-06-02T03:23:38.304Z,1016.06
2019-06-02T03:24:38.796Z,1016.02
2019-06-02T03:25:40.496Z,1016.03
2019-06-02T03:26:40.299Z,1016.02
2019-06-02T03:27:43.000Z,1016.03
2019-06-02T03:28:40.832Z,1016.01
2019-06-02T03:29:40.841Z,1015.99
2019-06-02T03:30:48.343Z,1016.01
2019-06-02T03:31:46.246Z,1015.98
2019-06-02T03:32:49.430Z,1015.99
2019-06-02T03:33:48.998Z,1015.99
2019-06-02T03:34:49.425Z,1016.03
2019-06-02T03:35:54.195Z,1016.01
2019-06-02T03:36:49.273Z,1015.99
2019-06-02T03:37:45.027Z,1016.03
2019-06-02T03:38:45.668Z,1016.01
2019-06-02T03:39:45.791Z,1016.00
2019-06-02T03:40:46.062Z,1015.97
2019-06-02T03:41:46.055Z,1016.04
2019-06-02T03:42:47.688Z,1015.98
2019-06-02T03:43:48.116Z,1016.01
2019-06-02T03:44:47.843Z,1016.03
2019-06-02T03:45:49.267Z,1016.02
2019-06-02T03:47:00.806Z,1016.05
2019-06-02T03:47:50.378Z,1016.05
2019-06-02T03:48:48.972Z,1016.06
2019-06-02T03:49:49.331Z,1016.04
2019-06-02T03:50:50.535Z,1016.04
2019-06-02T03:51:50.212Z,1016.05
2019-06-02T03:52:51.711Z,1016.05
2019-06-02T03:53:51.082Z,1016.01
2019-06-02T03:54:51.517Z,1016.01
2019-06-02T03:55:51.958Z,1016.05
2019-06-02T03:56:52.391Z,1016.02
2019-06-02T03:57:52.850Z,1016.01
2019-06-02T03:58:53.269Z,1016.02
2019-06-02T03:59:53.715Z,1016.01
2019-06-02T04:00:54.141Z,1016.01
2019-06-02T04:01:54.573Z,1015.99
2019-06-02T04:02:55.019Z,1016.02
2019-06-02T04:03:55.449Z,1016.01
2019-06-02T04:04:55.900Z,1016.03
2019-06-02T04:05:56.322Z,1016.01
2019-06-02T04:06:56.768Z,1016.01
2019-06-02T04:07:57.204Z,1016.02
2019-06-02T04:08:57.639Z,1016.02
2019-06-02T04:09:58.084Z,1016.05
2019-06-02T04:10:58.517Z,1016.08
2019-06-02T04:11:58.953Z,1016.08
2019-06-02T04:12:59.387Z,1016.07
2019-06-02T04:13:59.824Z,1016.07
2019-06-02T04:15:00.264Z,1016.09
2019-06-02T04:16:00.700Z,1016.09
2019-06-02T04:17:12.710Z,1016.06
2019-06-02T04:18:01.584Z,1016.05
2019-06-02T04:19:02.014Z,1016.07
2019-06-02T04:20:02.451Z,1016.07
2019-06-02T04:21:02.891Z,1016.08
2019-06-02T04:22:03.328Z,1016.02
2019-06-02T04:23:03.762Z,1016.05
2019-06-02T04:24:04.198Z,1016.08
2019-06-02T04:25:04.639Z,1016.11
2019-06-02T04:26:05.076Z,1016.09
2019-06-02T04:27:05.514Z,1016.13
2019-06-02T04:28:05.956Z,1016.06
2019-06-02T04:29:06.388Z,1016.08
2019-06-02T04:30:06.829Z,1016.09
2019-06-02T04:31:07.269Z,1016.04
2019-06-02T04:32:07.700Z,1016.03
2019-06-02T04:33:08.137Z,1016.05
2019-06-02T04:34:08.590Z,1016.07
2019-06-02T04:35:09.024Z,1016.08
2019-06-02T04:36:09.454Z,1016.08
2019-06-02T04:37:09.900Z,1016.08
2019-06-02T04:38:10.386Z,1016.09
2019-06-02T04:39:10.870Z,1016.08
2019-06-02T04:40:11.207Z,1016.11
2019-06-02T04:41:11.644Z,1016.08
2019-06-02T04:42:12.083Z,1016.07
2019-06-02T04:43:12.523Z,1016.11
2019-06-02T04:44:12.959Z,1016.10
2019-06-02T04:45:13.408Z,1016.04
2019-06-02T04:46:13.836Z,1016.06
2019-06-02T04:47:33.806Z,1016.06
2019-06-02T04:48:14.726Z,1016.10
2019-06-02T04:49:15.160Z,1016.10
2019-06-02T04:50:15.597Z,1016.06
2019-06-02T04:51:16.035Z,1016.08
2019-06-02T04:52:16.477Z,1016.06
2019-06-02T04:53:16.914Z,1016.05
2019-06-02T04:54:17.348Z,1016.09
2019-06-02T04:55:17.794Z,1016.07
2019-06-02T04:56:18.237Z,1016.07
2019-06-02T04:57:18.668Z,1016.06
2019-06-02T04:58:19.116Z,1016.10
2019-06-02T04:59:19.545Z,1016.13
2019-06-02T05:00:19.984Z,1016.13
2019-06-02T05:01:20.432Z,1016.16
2019-06-02T05:02:20.865Z,1016.13
2019-06-02T05:03:24.728Z,1016.12
2019-06-02T05:04:21.748Z,1016.09
2019-06-02T05:05:22.184Z,1016.15
2019-06-02T05:06:22.625Z,1016.14
2019-06-02T05:07:23.068Z,1016.14
2019-06-02T05:08:23.505Z,1016.16
2019-06-02T05:09:23.945Z,1016.14
2019-06-02T05:10:24.378Z,1016.14
2019-06-02T05:11:24.820Z,1016.13
2019-06-02T05:12:25.259Z,1016.14
2019-06-02T05:13:25.711Z,1016.10
2019-06-02T05:14:26.134Z,1016.11
2019-06-02T05:15:26.583Z,1016.10
2019-06-02T05:16:27.020Z,1016.12
2019-06-02T05:17:27.458Z,1016.13
2019-06-02T05:18:27.932Z,1016.10
2019-06-02T05:19:28.329Z,1016.06
2019-06-02T05:20:28.819Z,1016.09
2019-06-02T05:21:29.214Z,1016.10
2019-06-02T05:22:29.654Z,1016.13
2019-06-02T05:23:30.093Z,1016.12
2019-06-02T05:24:32.573Z,1016.13
2019-06-02T05:25:30.983Z,1016.11
2019-06-02T05:26:31.431Z,1016.10
2019-06-02T05:27:31.854Z,1016.07
2019-06-02T05:28:32.352Z,1016.08
2019-06-02T05:29:32.727Z,1016.06
2019-06-02T05:30:33.175Z,1016.05
2019-06-02T05:31:33.617Z,1016.05
2019-06-02T05:32:34.056Z,1016.04
2019-06-02T05:33:34.490Z,1016.03
2019-06-02T05:34:34.947Z,1016.05
2019-06-02T05:35:35.372Z,1016.02
2019-06-02T05:36:35.815Z,1016.03
2019-06-02T05:37:36.257Z,1016.05
2019-06-02T05:38:36.700Z,1016.02
2019-06-02T05:39:37.140Z,1016.03
2019-06-02T05:40:37.577Z,1016.02
2019-06-02T05:41:38.053Z,1016.02
2019-06-02T05:42:38.523Z,1016.00
2019-06-02T05:43:38.904Z,1015.98
2019-06-02T05:44:39.339Z,1015.99
2019-06-02T05:45:39.782Z,1015.99
2019-06-02T05:46:40.231Z,1016.02
2019-06-02T05:47:40.666Z,1016.02
2019-06-02T05:48:41.109Z,1016.02
2019-06-02T05:49:41.544Z,1016.04
2019-06-02T05:50:41.998Z,1016.00
2019-06-02T05:51:42.434Z,1016.03
2019-06-02T05:52:42.873Z,1016.00
2019-06-02T05:53:43.320Z,1015.99
2019-06-02T05:54:43.764Z,1016.01
2019-06-02T05:55:44.200Z,1015.99
2019-06-02T05:56:44.653Z,1016.03
2019-06-02T05:57:45.084Z,1016.04
2019-06-02T05:58:45.537Z,1016.02
2019-06-02T05:59:47.221Z,1016.01
2019-06-02T06:00:47.870Z,1016.02
2019-06-02T06:01:47.565Z,1016.03
2019-06-02T06:02:48.329Z,1016.01
2019-06-02T06:03:47.756Z,1016.04
2019-06-02T06:04:48.243Z,1016.03
2019-06-02T06:05:48.636Z,1016.01
2019-06-02T06:06:50.299Z,1015.95
2019-06-02T06:07:50.461Z,1016.02
2019-06-02T06:08:50.580Z,1016.01
2019-06-02T06:09:51.298Z,1016.03
2019-06-02T06:10:50.847Z,1016.03
2019-06-02T06:11:51.457Z,1016.08
2019-06-02T06:12:52.917Z,1016.10
2019-06-02T06:13:53.381Z,1016.11
2019-06-02T06:14:53.314Z,1016.10
2019-06-02T06:15:56.673Z,1016.14
2019-06-02T06:16:53.621Z,1016.08
2019-06-02T06:17:54.172Z,1016.10
2019-06-02T06:18:54.398Z,1016.08
2019-06-02T06:19:55.921Z,1016.03
2019-06-02T06:20:56.151Z,1016.08
2019-06-02T06:21:56.679Z,1016.05
2019-06-02T06:22:56.320Z,1016.08
2019-06-02T06:23:56.782Z,1016.08
2019-06-02T06:24:57.062Z,1016.08
2019-06-02T06:25:58.813Z,1016.08
2019-06-02T06:26:58.689Z,1016.10
2019-06-02T06:27:59.312Z,1016.13
2019-06-02T06:28:59.269Z,1016.11
2019-06-02T06:29:59.291Z,1016.12
2019-06-02T06:31:00.533Z,1016.10
2019-06-02T06:32:01.583Z,1016.16
2019-06-02T06:33:01.513Z,1016.14
2019-06-02T06:34:01.742Z,1016.16
2019-06-02T06:35:02.180Z,1016.12
2019-06-02T06:36:02.400Z,1016.15
2019-06-02T06:37:02.405Z,1016.11
2019-06-02T06:38:02.848Z,1016.11
2019-06-02T06:39:19.965Z,1016.11
2019-06-02T06:40:03.738Z,1016.08
2019-06-02T06:41:04.186Z,1016.10
2019-06-02T06:42:04.672Z,1016.11
2019-06-02T06:43:05.083Z,1016.10
2019-06-02T06:44:05.514Z,1016.09
2019-06-02T06:45:05.963Z,1016.12
2019-06-02T06:46:06.412Z,1016.13
2019-06-02T06:47:06.855Z,1016.14
2019-06-02T06:48:07.298Z,1016.12
2019-06-02T06:49:07.749Z,1016.11
2019-06-02T06:50:08.202Z,1016.10
2019-06-02T06:51:08.642Z,1016.13
2019-06-02T06:52:09.087Z,1016.12
2019-06-02T06:53:09.541Z,1016.12
2019-06-02T06:54:09.982Z,1016.14
2019-06-02T06:55:11.395Z,1016.14
2019-06-02T06:56:10.875Z,1016.14
2019-06-02T06:57:11.338Z,1016.14
2019-06-02T06:58:11.877Z,1016.13
2019-06-02T06:59:12.233Z,1016.13
2019-06-02T07:00:12.687Z,1016.16
2019-06-02T07:01:13.134Z,1016.14
2019-06-02T07:02:13.593Z,1016.12
2019-06-02T07:03:14.047Z,1016.11
2019-06-02T07:04:14.495Z,1016.13
2019-06-02T07:05:16.931Z,1016.10
2019-06-02T07:06:15.391Z,1016.06
2019-06-02T07:07:15.853Z,1016.08
2019-06-02T07:08:16.314Z,1016.07
2019-06-02T07:09:16.761Z,1016.05
2019-06-02T07:10:17.217Z,1016.02
2019-06-02T07:11:17.669Z,1016.04
2019-06-02T07:12:18.132Z,1016.02
2019-06-02T07:13:18.605Z,1016.00
2019-06-02T07:14:19.043Z,1015.98
2019-06-02T07:15:19.505Z,1016.03
2019-06-02T07:16:19.949Z,1016.03
2019-06-02T07:17:20.418Z,1016.01
2019-06-02T07:18:20.865Z,1016.02
2019-06-02T07:19:21.329Z,1016.02
2019-06-02T07:20:21.795Z,1016.00
2019-06-02T07:21:22.248Z,1016.01
2019-06-02T07:22:26.642Z,1015.96
2019-06-02T07:23:23.163Z,1015.98
2019-06-02T07:24:23.611Z,1016.01
2019-06-02T07:25:24.084Z,1015.99
2019-06-02T07:26:24.540Z,1016.02
2019-06-02T07:27:24.997Z,1016.03
2019-06-02T07:28:25.460Z,1016.01
2019-06-02T07:29:25.912Z,1016.04
2019-06-02T07:30:26.372Z,1016.06
2019-06-02T07:31:26.831Z,1016.04
2019-06-02T07:32:27.330Z,1016.01
2019-06-02T07:33:27.755Z,1016.08
2019-06-02T07:34:28.210Z,1016.04
2019-06-02T07:35:28.669Z,1016.05
2019-06-02T07:36:29.130Z,1016.05
2019-06-02T07:37:29.583Z,1016.01
2019-06-02T07:38:30.043Z,1015.96
2019-06-02T07:39:30.505Z,1015.98
2019-06-02T07:40:30.960Z,1015.97
2019-06-02T07:41:31.430Z,1015.98
2019-06-02T07:42:31.880Z,1015.96
2019-06-02T07:43:32.352Z,1015.96
2019-06-02T07:44:32.810Z,1015.98
2019-06-02T07:45:33.270Z,1016.00
2019-06-02T07:46:33.741Z,1015.97
2019-06-02T07:47:34.194Z,1015.99
2019-06-02T07:48:34.655Z,1015.94
2019-06-02T07:49:35.113Z,1015.95
2019-06-02T07:50:35.585Z,1015.97
2019-06-02T07:51:36.043Z,1015.96
2019-06-02T07:52:36.507Z,1015.92
2019-06-02T07:53:36.981Z,1015.92
2019-06-02T07:54:37.431Z,1015.88
2019-06-02T07:55:37.901Z,1015.91
2019-06-02T07:56:38.363Z,1015.92
2019-06-02T07:57:38.835Z,1015.92
2019-06-02T07:58:39.343Z,1015.95
2019-06-02T07:59:39.765Z,1015.93
2019-06-02T08:00:40.224Z,1015.91
2019-06-02T08:01:40.711Z,1015.94
2019-06-02T08:02:41.156Z,1015.89
2019-06-02T08:03:41.621Z,1015.93
2019-06-02T08:04:42.087Z,1015.94
2019-06-02T08:05:42.552Z,1015.92
2019-06-02T08:06:43.020Z,1015.94
2019-06-02T08:07:43.482Z,1015.94
2019-06-02T08:08:43.942Z,1015.94
2019-06-02T08:09:44.418Z,1015.91
2019-06-02T08:10:44.883Z,1015.95
2019-06-02T08:11:45.370Z,1015.92
2019-06-02T08:12:45.829Z,1015.94
2019-06-02T08:13:46.290Z,1015.92
2019-06-02T08:14:46.744Z,1015.94
2019-06-02T08:15:47.208Z,1015.96
2019-06-02T08:16:47.697Z,1015.97
2019-06-02T08:17:48.176Z,1015.94
2019-06-02T08:18:48.611Z,1015.92
2019-06-02T08:19:49.075Z,1015.91
2019-06-02T08:20:49.539Z,1015.94
2019-06-02T08:21:50.019Z,1015.88
2019-06-02T08:22:50.478Z,1015.86
2019-06-02T08:23:50.954Z,1015.89
2019-06-02T08:24:51.410Z,1015.86
2019-06-02T08:25:51.878Z,1015.85
2019-06-02T08:26:52.338Z,1015.91
2019-06-02T08:27:52.837Z,1015.90
2019-06-02T08:28:53.279Z,1015.91
2019-06-02T08:29:53.750Z,1015.90
2019-06-02T08:30:54.217Z,1015.84
2019-06-02T08:31:54.676Z,1015.82
2019-06-02T08:32:55.144Z,1015.83
2019-06-02T08:33:55.609Z,1015.78
2019-06-02T08:34:56.076Z,1015.76
2019-06-02T08:35:56.540Z,1015.77
2019-06-02T08:36:57.005Z,1015.76
2019-06-02T08:37:57.480Z,1015.80
2019-06-02T08:38:57.947Z,1015.72
2019-06-02T08:39:58.410Z,1015.77
2019-06-02T08:40:58.888Z,1015.75
2019-06-02T08:42:00.170Z,1015.75
2019-06-02T08:42:59.813Z,1015.76
2019-06-02T08:44:02.034Z,1015.75
2019-06-02T08:45:01.903Z,1015.73
2019-06-02T08:46:01.802Z,1015.70
2019-06-02T08:47:02.211Z,1015.71
2019-06-02T08:48:02.164Z,1015.67
2019-06-02T08:49:03.829Z,1015.66
2019-06-02T08:50:10.066Z,1015.64
2019-06-02T08:51:03.877Z,1015.66
2019-06-02T08:52:16.563Z,1015.63
2019-06-02T08:53:04.548Z,1015.67
2019-06-02T08:54:06.218Z,1015.66
2019-06-02T08:55:06.749Z,1015.63
2019-06-02T08:56:06.538Z,1015.71
2019-06-02T08:57:06.577Z,1015.66
2019-06-02T08:58:11.945Z,1015.60
2019-06-02T08:59:08.415Z,1015.67
2019-06-02T09:00:09.059Z,1015.61
2019-06-02T09:01:08.632Z,1015.65
2019-06-02T09:02:08.817Z,1015.64
2019-06-02T09:03:10.402Z,1015.64
2019-06-02T09:04:09.747Z,1015.62
2019-06-02T09:05:10.200Z,1015.64
2019-06-02T09:06:11.692Z,1015.65
2019-06-02T09:07:12.190Z,1015.66
2019-06-02T09:08:12.281Z,1015.63
2019-06-02T09:09:12.293Z,1015.61
2019-06-02T09:10:13.395Z,1015.57
2019-06-02T09:11:13.051Z,1015.55
2019-06-02T09:12:13.544Z,1015.54
2019-06-02T09:13:14.039Z,1015.51
2019-06-02T09:14:14.484Z,1015.51
2019-06-02T09:15:14.955Z,1015.52
2019-06-02T09:16:15.457Z,1015.50
2019-06-02T09:17:17.177Z,1015.50
2019-06-02T09:18:16.380Z,1015.48
2019-06-02T09:19:16.862Z,1015.52
2019-06-02T09:20:31.352Z,1015.45
2019-06-02T09:21:17.812Z,1015.49
2019-06-02T09:22:18.283Z,1015.51
2019-06-02T09:23:18.758Z,1015.50
2019-06-02T09:24:19.236Z,1015.50
2019-06-02T09:25:19.713Z,1015.46
2019-06-02T09:26:20.191Z,1015.46
2019-06-02T09:27:20.662Z,1015.42
2019-06-02T09:28:21.139Z,1015.40
2019-06-02T09:29:21.618Z,1015.44
2019-06-02T09:30:22.092Z,1015.41
2019-06-02T09:31:22.563Z,1015.45
2019-06-02T09:32:23.080Z,1015.42
2019-06-02T09:33:23.527Z,1015.43
2019-06-02T09:34:24.000Z,1015.43
2019-06-02T09:35:24.466Z,1015.39
2019-06-02T09:36:24.946Z,1015.38
2019-06-02T09:37:25.420Z,1015.35
2019-06-02T09:38:25.892Z,1015.38
2019-06-02T09:39:26.379Z,1015.39
2019-06-02T09:40:26.851Z,1015.38
2019-06-02T09:41:27.319Z,1015.38
2019-06-02T09:42:27.798Z,1015.36
2019-06-02T09:43:28.280Z,1015.39
2019-06-02T09:44:39.701Z,1015.36
2019-06-02T09:45:29.239Z,1015.33
2019-06-02T09:46:29.697Z,1015.34
2019-06-02T09:47:30.187Z,1015.34
2019-06-02T09:48:30.653Z,1015.34
2019-06-02T09:49:34.584Z,1015.34
2019-06-02T09:50:45.235Z,1015.34
2019-06-02T09:51:32.090Z,1015.36
2019-06-02T09:52:32.564Z,1015.37
2019-06-02T09:53:33.035Z,1015.33
2019-06-02T09:54:33.510Z,1015.33
2019-06-02T09:55:33.996Z,1015.27
2019-06-02T09:56:34.469Z,1015.26
2019-06-02T09:57:34.948Z,1015.28
2019-06-02T09:58:35.419Z,1015.23
2019-06-02T09:59:35.903Z,1015.19
2019-06-02T10:00:36.378Z,1015.19
2019-06-02T10:01:36.854Z,1015.19
2019-06-02T10:02:37.330Z,1015.19
2019-06-02T10:03:37.809Z,1015.21
2019-06-02T10:04:38.286Z,1015.18
2019-06-02T10:05:38.764Z,1015.24
2019-06-02T10:06:39.246Z,1015.24
2019-06-02T10:07:39.730Z,1015.19
2019-06-02T10:08:40.207Z,1015.13
2019-06-02T10:09:40.679Z,1015.12
2019-06-02T10:10:41.159Z,1015.09
2019-06-02T10:11:41.645Z,1015.10
2019-06-02T10:12:42.121Z,1015.08
2019-06-02T10:13:42.598Z,1015.04
2019-06-02T10:14:43.078Z,1015.06
2019-06-02T10:15:43.559Z,1015.01
2019-06-02T10:16:44.054Z,1015.00
2019-06-02T10:17:44.523Z,1015.04
2019-06-02T10:18:44.991Z,1015.01
2019-06-02T10:19:45.476Z,1014.98
2019-06-02T10:21:03.099Z,1014.96
2019-06-02T10:21:46.434Z,1015.00
2019-06-02T10:22:46.914Z,1014.95
2019-06-02T10:23:47.389Z,1014.96
2019-06-02T10:24:47.869Z,1014.99
2019-06-02T10:25:48.355Z,1014.95
2019-06-02T10:26:48.835Z,1014.92
2019-06-02T10:27:49.318Z,1014.92
2019-06-02T10:28:49.804Z,1014.89
2019-06-02T10:29:50.288Z,1014.87
2019-06-02T10:30:50.806Z,1014.88
2019-06-02T10:31:54.840Z,1014.93
2019-06-02T10:32:51.726Z,1014.91
2019-06-02T10:33:52.223Z,1014.92
2019-06-02T10:34:52.712Z,1014.92
2019-06-02T10:35:53.180Z,1014.96
2019-06-02T10:36:53.679Z,1014.98
2019-06-02T10:37:54.138Z,1014.92
2019-06-02T10:38:54.633Z,1014.89
2019-06-02T10:39:55.112Z,1014.89
2019-06-02T10:40:55.605Z,1014.88
2019-06-02T10:41:56.076Z,1014.83
2019-06-02T10:42:56.561Z,1014.80
2019-06-02T10:43:57.032Z,1014.80
2019-06-02T10:44:57.523Z,1014.84
2019-06-02T10:45:57.999Z,1014.84
2019-06-02T10:46:58.659Z,1014.80
2019-06-02T10:47:58.975Z,1014.71
2019-06-02T10:48:59.452Z,1014.67
2019-06-02T10:49:59.936Z,1014.71
2019-06-02T10:51:00.415Z,1014.69
2019-06-02T10:52:00.893Z,1014.69
2019-06-02T10:53:01.383Z,1014.71
2019-06-02T10:54:01.859Z,1014.71
2019-06-02T10:55:02.345Z,1014.68
2019-06-02T10:56:02.909Z,1014.67
2019-06-02T10:57:03.334Z,1014.64
2019-06-02T10:58:03.798Z,1014.65
2019-06-02T10:59:04.267Z,1014.67
2019-06-02T11:00:04.940Z,1014.67
2019-06-02T11:01:05.229Z,1014.64
2019-06-02T11:02:05.725Z,1014.64
2019-06-02T11:03:06.199Z,1014.59
2019-06-02T11:04:06.681Z,1014.61
2019-06-02T11:05:08.455Z,1014.62
2019-06-02T11:06:08.581Z,1014.58
2019-06-02T11:07:08.816Z,1014.63
2019-06-02T11:08:08.897Z,1014.56
2019-06-02T11:09:09.084Z,1014.59
2019-06-02T11:10:10.858Z,1014.59
2019-06-02T11:11:10.941Z,1014.58
2019-06-02T11:12:11.042Z,1014.63
2019-06-02T11:13:11.311Z,1014.64
2019-06-02T11:14:12.182Z,1014.59
2019-06-02T11:15:11.966Z,1014.62
2019-06-02T11:16:13.656Z,1014.56
2019-06-02T11:17:14.540Z,1014.56
2019-06-02T11:18:14.106Z,1014.57
2019-06-02T11:19:13.883Z,1014.63
2019-06-02T11:20:14.363Z,1014.61
2019-06-02T11:21:16.017Z,1014.57
2019-06-02T11:22:16.245Z,1014.55
2019-06-02T11:23:16.251Z,1014.52
2019-06-02T11:24:16.381Z,1014.48
2019-06-02T11:25:16.759Z,1014.44
2019-06-02T11:26:18.535Z,1014.48
2019-06-02T11:27:18.989Z,1014.46
2019-06-02T11:28:18.874Z,1014.37
2019-06-02T11:29:18.765Z,1014.36
2019-06-02T11:30:19.198Z,1014.39
2019-06-02T11:31:20.784Z,1014.33
2019-06-02T11:32:21.260Z,1014.34
2019-06-02T11:33:21.526Z,1014.30
2019-06-02T11:34:21.446Z,1014.35
2019-06-02T11:35:21.706Z,1014.34
2019-06-02T11:36:22.005Z,1014.36
2019-06-02T11:37:22.480Z,1014.37
2019-06-02T11:38:22.945Z,1014.35
2019-06-02T11:39:23.423Z,1014.37
2019-06-02T11:40:23.889Z,1014.35
2019-06-02T11:41:24.357Z,1014.34
2019-06-02T11:42:24.841Z,1014.33
2019-06-02T11:43:25.302Z,1014.27
2019-06-02T11:44:25.767Z,1014.25
2019-06-02T11:45:26.226Z,1014.23
2019-06-02T11:46:26.687Z,1014.26
2019-06-02T11:47:27.155Z,1014.30
2019-06-02T11:48:27.612Z,1014.34
2019-06-02T11:49:28.082Z,1014.29
2019-06-02T11:50:28.541Z,1014.29
2019-06-02T11:51:29.003Z,1014.26
2019-06-02T11:52:29.456Z,1014.23
2019-06-02T11:53:29.918Z,1014.22
2019-06-02T11:54:30.381Z,1014.20
2019-06-02T11:55:30.832Z,1014.17
2019-06-02T11:56:31.292Z,1014.13
2019-06-02T11:57:31.747Z,1014.12
2019-06-02T11:58:32.210Z,1014.09
2019-06-02T11:59:32.657Z,1014.09
2019-06-02T12:00:33.122Z,1014.05
2019-06-02T12:01:33.580Z,1014.02
2019-06-02T12:02:34.044Z,1014.01
2019-06-02T12:03:34.490Z,1013.96
2019-06-02T12:04:34.940Z,1013.98
2019-06-02T12:05:35.404Z,1013.88
2019-06-02T12:06:37.064Z,1013.81
2019-06-02T12:07:36.332Z,1013.83
2019-06-02T12:08:36.775Z,1013.84
2019-06-02T12:09:37.230Z,1013.74
2019-06-02T12:10:37.708Z,1013.73